sensor_id;sensor_type;location;lat;lon;timestamp;P1;durP1;ratioP1;P2;durP2;ratioP2
20159;SDS011;50187;50.492;12.134;2022-09-09T00:00:06;1.90;;;1.60;;
20159;SDS011;50187;50.492;12.134;2022-09-09T00:06:04;1.00;;;0.90;;
20159;SDS011;50187;50.492;12.134;2022-09-09T00:09:08;2.87;;;1.67;;
20159;SDS011;50187;50.492;12.134;2022-09-09T00:15:05;2.33;;;1.23;;
20159;SDS011;50187;50.492;12.134;2022-09-09T00:21:14;1.20;;;1.20;;
20159;SDS011;50187;50.492;12.134;2022-09-09T00:24:08;2.20;;;1.50;;
20159;SDS011;50187;50.492;12.134;2022-09-09T00:27:09;1.40;;;1.30;;
20159;SDS011;50187;50.492;12.134;2022-09-09T00:33:11;1.60;;;1.27;;
20159;SDS011;50187;50.492;12.134;2022-09-09T00:35:59;0.90;;;0.90;;
20159;SDS011;50187;50.492;12.134;2022-09-09T00:38:51;1.13;;;1.13;;
20159;SDS011;50187;50.492;12.134;2022-09-09T00:45:02;1.23;;;1.13;;
20159;SDS011;50187;50.492;12.134;2022-09-09T00:47:59;1.20;;;1.10;;
20159;SDS011;50187;50.492;12.134;2022-09-09T00:50:57;1.00;;;1.00;;
20159;SDS011;50187;50.492;12.134;2022-09-09T01:00:24;1.33;;;1.23;;
20159;SDS011;50187;50.492;12.134;2022-09-09T01:06:16;1.20;;;1.20;;
20159;SDS011;50187;50.492;12.134;2022-09-09T01:12:42;1.20;;;1.10;;
20159;SDS011;50187;50.492;12.134;2022-09-09T01:15:35;1.20;;;1.10;;
20159;SDS011;50187;50.492;12.134;2022-09-09T01:18:23;0.90;;;0.90;;
20159;SDS011;50187;50.492;12.134;2022-09-09T01:24:20;1.20;;;1.10;;
20159;SDS011;50187;50.492;12.134;2022-09-09T01:27:44;1.37;;;0.87;;
20159;SDS011;50187;50.492;12.134;2022-09-09T01:30:33;1.03;;;1.00;;
20159;SDS011;50187;50.492;12.134;2022-09-09T01:33:20;1.20;;;1.10;;
20159;SDS011;50187;50.492;12.134;2022-09-09T01:36:08;1.10;;;1.10;;
20159;SDS011;50187;50.492;12.134;2022-09-09T01:39:08;1.20;;;1.20;;
20159;SDS011;50187;50.492;12.134;2022-09-09T01:41:54;0.90;;;0.90;;
20159;SDS011;50187;50.492;12.134;2022-09-09T01:44:40;0.90;;;0.90;;
20159;SDS011;50187;50.492;12.134;2022-09-09T01:47:25;1.00;;;1.00;;
20159;SDS011;50187;50.492;12.134;2022-09-09T01:50:24;1.57;;;1.10;;
20159;SDS011;50187;50.492;12.134;2022-09-09T01:53:10;1.03;;;1.03;;
20159;SDS011;50187;50.492;12.134;2022-09-09T01:56:00;0.90;;;0.90;;
20159;SDS011;50187;50.492;12.134;2022-09-09T01:59:11;1.30;;;1.00;;
20159;SDS011;50187;50.492;12.134;2022-09-09T02:02:15;1.30;;;1.00;;
20159;SDS011;50187;50.492;12.134;2022-09-09T02:08:13;1.00;;;1.00;;
20159;SDS011;50187;50.492;12.134;2022-09-09T02:11:14;0.93;;;0.93;;
20159;SDS011;50187;50.492;12.134;2022-09-09T02:14:08;1.13;;;1.03;;
20159;SDS011;50187;50.492;12.134;2022-09-09T02:17:07;1.13;;;1.13;;
20159;SDS011;50187;50.492;12.134;2022-09-09T02:20:18;1.00;;;1.00;;
20159;SDS011;50187;50.492;12.134;2022-09-09T02:23:09;0.90;;;0.90;;
20159;SDS011;50187;50.492;12.134;2022-09-09T02:25:56;0.90;;;0.90;;
20159;SDS011;50187;50.492;12.134;2022-09-09T02:28:43;0.77;;;0.77;;
20159;SDS011;50187;50.492;12.134;2022-09-09T02:31:29;0.83;;;0.83;;
20159;SDS011;50187;50.492;12.134;2022-09-09T02:34:22;0.53;;;0.53;;
20159;SDS011;50187;50.492;12.134;2022-09-09T02:37:09;1.00;;;1.00;;
20159;SDS011;50187;50.492;12.134;2022-09-09T02:39:57;0.93;;;0.93;;
20159;SDS011;50187;50.492;12.134;2022-09-09T02:42:43;2.00;;;1.00;;
20159;SDS011;50187;50.492;12.134;2022-09-09T02:45:36;1.00;;;1.00;;
20159;SDS011;50187;50.492;12.134;2022-09-09T02:48:43;0.80;;;0.80;;
20159;SDS011;50187;50.492;12.134;2022-09-09T02:54:47;0.77;;;0.77;;
20159;SDS011;50187;50.492;12.134;2022-09-09T02:57:38;1.10;;;1.00;;
20159;SDS011;50187;50.492;12.134;2022-09-09T03:00:26;0.70;;;0.70;;
20159;SDS011;50187;50.492;12.134;2022-09-09T03:03:17;1.07;;;1.07;;
20159;SDS011;50187;50.492;12.134;2022-09-09T03:06:04;2.13;;;1.03;;
20159;SDS011;50187;50.492;12.134;2022-09-09T03:08:50;0.90;;;0.90;;
20159;SDS011;50187;50.492;12.134;2022-09-09T03:11:41;0.67;;;0.67;;
20159;SDS011;50187;50.492;12.134;2022-09-09T03:14:26;0.90;;;0.90;;
20159;SDS011;50187;50.492;12.134;2022-09-09T03:17:12;1.00;;;1.00;;
20159;SDS011;50187;50.492;12.134;2022-09-09T03:20:05;1.10;;;1.10;;
20159;SDS011;50187;50.492;12.134;2022-09-09T03:22:51;0.80;;;0.80;;
20159;SDS011;50187;50.492;12.134;2022-09-09T03:25:38;0.93;;;0.93;;
20159;SDS011;50187;50.492;12.134;2022-09-09T03:28:23;0.50;;;0.50;;
20159;SDS011;50187;50.492;12.134;2022-09-09T03:31:15;1.00;;;1.00;;
20159;SDS011;50187;50.492;12.134;2022-09-09T03:34:01;0.90;;;0.90;;
20159;SDS011;50187;50.492;12.134;2022-09-09T03:36:49;0.73;;;0.73;;
20159;SDS011;50187;50.492;12.134;2022-09-09T03:39:36;0.70;;;0.70;;
20159;SDS011;50187;50.492;12.134;2022-09-09T03:42:22;0.77;;;0.77;;
20159;SDS011;50187;50.492;12.134;2022-09-09T03:45:10;0.80;;;0.80;;
20159;SDS011;50187;50.492;12.134;2022-09-09T03:47:57;0.87;;;0.87;;
20159;SDS011;50187;50.492;12.134;2022-09-09T03:50:46;0.87;;;0.80;;
20159;SDS011;50187;50.492;12.134;2022-09-09T03:53:33;0.77;;;0.70;;
20159;SDS011;50187;50.492;12.134;2022-09-09T03:56:20;0.80;;;0.80;;
20159;SDS011;50187;50.492;12.134;2022-09-09T03:59:06;0.60;;;0.60;;
20159;SDS011;50187;50.492;12.134;2022-09-09T04:01:53;0.60;;;0.60;;
20159;SDS011;50187;50.492;12.134;2022-09-09T04:04:39;0.97;;;0.97;;
20159;SDS011;50187;50.492;12.134;2022-09-09T04:07:25;0.73;;;0.73;;
20159;SDS011;50187;50.492;12.134;2022-09-09T04:10:13;0.67;;;0.63;;
20159;SDS011;50187;50.492;12.134;2022-09-09T04:12:58;0.90;;;0.90;;
20159;SDS011;50187;50.492;12.134;2022-09-09T04:15:52;0.70;;;0.70;;
20159;SDS011;50187;50.492;12.134;2022-09-09T04:18:39;1.07;;;0.90;;
20159;SDS011;50187;50.492;12.134;2022-09-09T04:21:24;0.80;;;0.80;;
20159;SDS011;50187;50.492;12.134;2022-09-09T04:24:11;0.60;;;0.60;;
20159;SDS011;50187;50.492;12.134;2022-09-09T04:26:56;0.70;;;0.70;;
20159;SDS011;50187;50.492;12.134;2022-09-09T04:29:41;0.87;;;0.87;;
20159;SDS011;50187;50.492;12.134;2022-09-09T04:32:26;0.70;;;0.70;;
20159;SDS011;50187;50.492;12.134;2022-09-09T04:35:12;0.70;;;0.70;;
20159;SDS011;50187;50.492;12.134;2022-09-09T04:37:57;0.70;;;0.70;;
20159;SDS011;50187;50.492;12.134;2022-09-09T04:40:48;0.60;;;0.60;;
20159;SDS011;50187;50.492;12.134;2022-09-09T04:43:35;0.73;;;0.73;;
20159;SDS011;50187;50.492;12.134;2022-09-09T04:46:22;0.70;;;0.70;;
20159;SDS011;50187;50.492;12.134;2022-09-09T04:49:08;1.03;;;0.70;;
20159;SDS011;50187;50.492;12.134;2022-09-09T04:51:59;0.60;;;0.50;;
20159;SDS011;50187;50.492;12.134;2022-09-09T04:54:45;0.60;;;0.60;;
20159;SDS011;50187;50.492;12.134;2022-09-09T04:57:30;1.00;;;0.90;;
20159;SDS011;50187;50.492;12.134;2022-09-09T05:00:17;1.87;;;0.80;;
20159;SDS011;50187;50.492;12.134;2022-09-09T05:03:04;0.57;;;0.57;;
20159;SDS011;50187;50.492;12.134;2022-09-09T05:05:51;0.57;;;0.57;;
20159;SDS011;50187;50.492;12.134;2022-09-09T05:08:38;0.60;;;0.60;;
20159;SDS011;50187;50.492;12.134;2022-09-09T05:11:26;0.67;;;0.60;;
20159;SDS011;50187;50.492;12.134;2022-09-09T05:14:18;0.60;;;0.60;;
20159;SDS011;50187;50.492;12.134;2022-09-09T05:17:03;0.60;;;0.60;;
20159;SDS011;50187;50.492;12.134;2022-09-09T05:19:52;0.53;;;0.53;;
20159;SDS011;50187;50.492;12.134;2022-09-09T05:22:37;0.60;;;0.60;;
20159;SDS011;50187;50.492;12.134;2022-09-09T05:25:23;0.80;;;0.80;;
20159;SDS011;50187;50.492;12.134;2022-09-09T05:28:13;0.60;;;0.60;;
20159;SDS011;50187;50.492;12.134;2022-09-09T05:31:01;0.50;;;0.50;;
20159;SDS011;50187;50.492;12.134;2022-09-09T05:33:51;0.60;;;0.60;;
20159;SDS011;50187;50.492;12.134;2022-09-09T05:36:37;1.10;;;0.50;;
20159;SDS011;50187;50.492;12.134;2022-09-09T05:39:23;0.50;;;0.50;;
20159;SDS011;50187;50.492;12.134;2022-09-09T05:42:08;0.60;;;0.60;;
20159;SDS011;50187;50.492;12.134;2022-09-09T05:44:53;0.70;;;0.70;;
20159;SDS011;50187;50.492;12.134;2022-09-09T05:47:39;0.40;;;0.40;;
20159;SDS011;50187;50.492;12.134;2022-09-09T05:50:28;0.70;;;0.50;;
20159;SDS011;50187;50.492;12.134;2022-09-09T05:53:15;0.40;;;0.40;;
20159;SDS011;50187;50.492;12.134;2022-09-09T05:56:03;0.70;;;0.70;;
20159;SDS011;50187;50.492;12.134;2022-09-09T05:58:55;0.60;;;0.60;;
20159;SDS011;50187;50.492;12.134;2022-09-09T06:01:42;0.53;;;0.53;;
20159;SDS011;50187;50.492;12.134;2022-09-09T06:04:36;0.50;;;0.50;;
20159;SDS011;50187;50.492;12.134;2022-09-09T06:07:22;0.60;;;0.60;;
20159;SDS011;50187;50.492;12.134;2022-09-09T06:10:07;0.50;;;0.50;;
20159;SDS011;50187;50.492;12.134;2022-09-09T06:12:53;0.60;;;0.60;;
20159;SDS011;50187;50.492;12.134;2022-09-09T06:15:39;0.63;;;0.63;;
20159;SDS011;50187;50.492;12.134;2022-09-09T06:18:25;0.60;;;0.60;;
20159;SDS011;50187;50.492;12.134;2022-09-09T06:21:14;1.13;;;0.67;;
20159;SDS011;50187;50.492;12.134;2022-09-09T06:24:02;0.77;;;0.50;;
20159;SDS011;50187;50.492;12.134;2022-09-09T06:26:48;0.80;;;0.80;;
20159;SDS011;50187;50.492;12.134;2022-09-09T06:29:38;0.60;;;0.60;;
20159;SDS011;50187;50.492;12.134;2022-09-09T06:32:25;0.53;;;0.53;;
20159;SDS011;50187;50.492;12.134;2022-09-09T06:35:12;0.57;;;0.57;;
20159;SDS011;50187;50.492;12.134;2022-09-09T06:37:58;0.60;;;0.60;;
20159;SDS011;50187;50.492;12.134;2022-09-09T06:40:50;0.90;;;0.80;;
20159;SDS011;50187;50.492;12.134;2022-09-09T06:43:36;0.70;;;0.70;;
20159;SDS011;50187;50.492;12.134;2022-09-09T06:46:22;0.53;;;0.53;;
20159;SDS011;50187;50.492;12.134;2022-09-09T06:49:13;0.67;;;0.67;;
20159;SDS011;50187;50.492;12.134;2022-09-09T06:51:59;0.40;;;0.40;;
20159;SDS011;50187;50.492;12.134;2022-09-09T06:54:46;0.40;;;0.40;;
20159;SDS011;50187;50.492;12.134;2022-09-09T06:57:33;0.60;;;0.60;;
20159;SDS011;50187;50.492;12.134;2022-09-09T07:00:26;0.50;;;0.50;;
20159;SDS011;50187;50.492;12.134;2022-09-09T07:03:11;0.77;;;0.60;;
20159;SDS011;50187;50.492;12.134;2022-09-09T07:05:57;0.83;;;0.80;;
20159;SDS011;50187;50.492;12.134;2022-09-09T07:09:04;0.60;;;0.60;;
20159;SDS011;50187;50.492;12.134;2022-09-09T07:11:52;0.70;;;0.70;;
20159;SDS011;50187;50.492;12.134;2022-09-09T07:14:41;0.70;;;0.70;;
20159;SDS011;50187;50.492;12.134;2022-09-09T07:17:27;0.50;;;0.50;;
20159;SDS011;50187;50.492;12.134;2022-09-09T07:20:16;0.43;;;0.43;;
20159;SDS011;50187;50.492;12.134;2022-09-09T07:23:02;0.60;;;0.60;;
20159;SDS011;50187;50.492;12.134;2022-09-09T07:25:47;1.07;;;0.90;;
20159;SDS011;50187;50.492;12.134;2022-09-09T07:28:35;0.60;;;0.60;;
20159;SDS011;50187;50.492;12.134;2022-09-09T07:31:21;0.93;;;0.90;;
20159;SDS011;50187;50.492;12.134;2022-09-09T07:34:19;1.37;;;1.00;;
20159;SDS011;50187;50.492;12.134;2022-09-09T07:37:04;0.77;;;0.77;;
20159;SDS011;50187;50.492;12.134;2022-09-09T07:39:50;1.40;;;1.00;;
20159;SDS011;50187;50.492;12.134;2022-09-09T07:42:37;3.43;;;1.00;;
20159;SDS011;50187;50.492;12.134;2022-09-09T07:45:22;1.30;;;1.00;;
20159;SDS011;50187;50.492;12.134;2022-09-09T07:48:08;1.63;;;1.03;;
20159;SDS011;50187;50.492;12.134;2022-09-09T07:51:02;1.17;;;1.00;;
20159;SDS011;50187;50.492;12.134;2022-09-09T07:53:54;0.77;;;0.77;;
20159;SDS011;50187;50.492;12.134;2022-09-09T07:56:42;1.30;;;0.80;;
20159;SDS011;50187;50.492;12.134;2022-09-09T07:59:29;1.27;;;1.20;;
20159;SDS011;50187;50.492;12.134;2022-09-09T08:02:15;1.77;;;1.23;;
20159;SDS011;50187;50.492;12.134;2022-09-09T08:05:02;2.03;;;1.10;;
20159;SDS011;50187;50.492;12.134;2022-09-09T08:07:47;1.50;;;1.00;;
20159;SDS011;50187;50.492;12.134;2022-09-09T08:10:33;1.17;;;1.00;;
20159;SDS011;50187;50.492;12.134;2022-09-09T08:13:18;0.80;;;0.80;;
20159;SDS011;50187;50.492;12.134;2022-09-09T08:16:06;1.77;;;1.10;;
20159;SDS011;50187;50.492;12.134;2022-09-09T08:19:03;1.23;;;1.00;;
20159;SDS011;50187;50.492;12.134;2022-09-09T08:21:50;0.80;;;0.80;;
20159;SDS011;50187;50.492;12.134;2022-09-09T08:24:35;2.73;;;1.00;;
20159;SDS011;50187;50.492;12.134;2022-09-09T08:27:21;2.13;;;1.20;;
20159;SDS011;50187;50.492;12.134;2022-09-09T08:30:06;1.30;;;1.10;;
20159;SDS011;50187;50.492;12.134;2022-09-09T08:32:52;1.17;;;1.07;;
20159;SDS011;50187;50.492;12.134;2022-09-09T08:35:38;1.37;;;1.10;;
20159;SDS011;50187;50.492;12.134;2022-09-09T08:38:24;2.57;;;1.03;;
20159;SDS011;50187;50.492;12.134;2022-09-09T08:50:28;2.00;;;1.10;;
20159;SDS011;50187;50.492;12.134;2022-09-09T08:53:27;1.53;;;1.17;;
20159;SDS011;50187;50.492;12.134;2022-09-09T08:56:24;1.13;;;1.00;;
20159;SDS011;50187;50.492;12.134;2022-09-09T08:59:16;1.90;;;1.30;;
20159;SDS011;50187;50.492;12.134;2022-09-09T09:02:08;1.33;;;1.20;;
20159;SDS011;50187;50.492;12.134;2022-09-09T09:08:20;1.03;;;1.00;;
20159;SDS011;50187;50.492;12.134;2022-09-09T09:11:18;1.23;;;1.07;;
20159;SDS011;50187;50.492;12.134;2022-09-09T09:14:27;1.37;;;1.27;;
20159;SDS011;50187;50.492;12.134;2022-09-09T09:17:16;0.73;;;0.73;;
20159;SDS011;50187;50.492;12.134;2022-09-09T09:20:06;1.40;;;1.20;;
20159;SDS011;50187;50.492;12.134;2022-09-09T09:22:58;3.13;;;1.30;;
20159;SDS011;50187;50.492;12.134;2022-09-09T09:25:48;5.00;;;1.50;;
20159;SDS011;50187;50.492;12.134;2022-09-09T09:28:36;4.17;;;1.10;;
20159;SDS011;50187;50.492;12.134;2022-09-09T09:31:28;1.73;;;1.20;;
20159;SDS011;50187;50.492;12.134;2022-09-09T09:34:14;1.00;;;1.00;;
20159;SDS011;50187;50.492;12.134;2022-09-09T09:36:59;1.10;;;1.00;;
20159;SDS011;50187;50.492;12.134;2022-09-09T09:39:51;1.27;;;1.03;;
20159;SDS011;50187;50.492;12.134;2022-09-09T09:42:52;3.70;;;1.20;;
20159;SDS011;50187;50.492;12.134;2022-09-09T09:45:43;3.37;;;1.10;;
20159;SDS011;50187;50.492;12.134;2022-09-09T09:51:46;2.27;;;1.37;;
20159;SDS011;50187;50.492;12.134;2022-09-09T09:54:33;1.00;;;1.00;;
20159;SDS011;50187;50.492;12.134;2022-09-09T09:57:26;1.20;;;1.10;;
20159;SDS011;50187;50.492;12.134;2022-09-09T10:00:20;1.30;;;1.20;;
20159;SDS011;50187;50.492;12.134;2022-09-09T10:06:15;1.33;;;1.23;;
20159;SDS011;50187;50.492;12.134;2022-09-09T10:09:00;0.90;;;0.90;;
20159;SDS011;50187;50.492;12.134;2022-09-09T10:24:45;3.17;;;1.20;;
20159;SDS011;50187;50.492;12.134;2022-09-09T10:27:42;3.43;;;1.10;;
20159;SDS011;50187;50.492;12.134;2022-09-09T10:36:59;0.80;;;0.80;;
20159;SDS011;50187;50.492;12.134;2022-09-09T10:39:45;1.20;;;1.03;;
20159;SDS011;50187;50.492;12.134;2022-09-09T10:42:30;2.73;;;1.10;;
20159;SDS011;50187;50.492;12.134;2022-09-09T10:45:31;1.03;;;1.03;;
20159;SDS011;50187;50.492;12.134;2022-09-09T10:57:58;1.87;;;1.00;;
20159;SDS011;50187;50.492;12.134;2022-09-09T11:00:46;0.90;;;0.90;;
20159;SDS011;50187;50.492;12.134;2022-09-09T11:03:41;1.33;;;1.13;;
20159;SDS011;50187;50.492;12.134;2022-09-09T11:06:33;1.17;;;1.07;;
20159;SDS011;50187;50.492;12.134;2022-09-09T11:09:28;1.97;;;1.30;;
20159;SDS011;50187;50.492;12.134;2022-09-09T11:12:21;1.57;;;0.73;;
20159;SDS011;50187;50.492;12.134;2022-09-09T11:15:14;0.90;;;0.90;;
20159;SDS011;50187;50.492;12.134;2022-09-09T11:18:04;1.13;;;1.03;;
20159;SDS011;50187;50.492;12.134;2022-09-09T11:20:58;1.40;;;1.10;;
20159;SDS011;50187;50.492;12.134;2022-09-09T11:23:48;1.63;;;1.00;;
20159;SDS011;50187;50.492;12.134;2022-09-09T11:26:47;1.43;;;0.90;;
20159;SDS011;50187;50.492;12.134;2022-09-09T11:32:59;1.60;;;1.00;;
20159;SDS011;50187;50.492;12.134;2022-09-09T11:44:56;0.70;;;0.70;;
20159;SDS011;50187;50.492;12.134;2022-09-09T11:47:50;2.20;;;1.00;;
20159;SDS011;50187;50.492;12.134;2022-09-09T11:50:37;1.50;;;1.27;;
20159;SDS011;50187;50.492;12.134;2022-09-09T11:53:23;1.80;;;1.20;;
20159;SDS011;50187;50.492;12.134;2022-09-09T11:56:12;0.80;;;0.80;;
20159;SDS011;50187;50.492;12.134;2022-09-09T11:59:00;1.53;;;0.83;;
20159;SDS011;50187;50.492;12.134;2022-09-09T12:02:02;0.60;;;0.60;;
20159;SDS011;50187;50.492;12.134;2022-09-09T12:05:10;1.80;;;0.97;;
20159;SDS011;50187;50.492;12.134;2022-09-09T12:07:57;1.10;;;1.00;;
20159;SDS011;50187;50.492;12.134;2022-09-09T12:10:52;1.10;;;1.03;;
20159;SDS011;50187;50.492;12.134;2022-09-09T12:13:38;1.20;;;1.00;;
20159;SDS011;50187;50.492;12.134;2022-09-09T12:16:34;0.93;;;0.83;;
20159;SDS011;50187;50.492;12.134;2022-09-09T12:19:22;1.33;;;0.87;;
20159;SDS011;50187;50.492;12.134;2022-09-09T12:28:22;1.13;;;1.03;;
20159;SDS011;50187;50.492;12.134;2022-09-09T12:31:26;1.33;;;0.93;;
20159;SDS011;50187;50.492;12.134;2022-09-09T12:34:29;0.73;;;0.73;;
20159;SDS011;50187;50.492;12.134;2022-09-09T12:37:29;1.00;;;0.90;;
20159;SDS011;50187;50.492;12.134;2022-09-09T12:40:23;1.20;;;1.10;;
20159;SDS011;50187;50.492;12.134;2022-09-09T12:43:17;1.73;;;0.87;;
20159;SDS011;50187;50.492;12.134;2022-09-09T12:46:07;1.37;;;0.87;;
20159;SDS011;50187;50.492;12.134;2022-09-09T12:48:59;0.87;;;0.87;;
20159;SDS011;50187;50.492;12.134;2022-09-09T12:51:45;0.90;;;0.90;;
20159;SDS011;50187;50.492;12.134;2022-09-09T12:54:30;0.73;;;0.73;;
20159;SDS011;50187;50.492;12.134;2022-09-09T12:57:15;0.70;;;0.70;;
20159;SDS011;50187;50.492;12.134;2022-09-09T13:00:04;0.93;;;0.90;;
20159;SDS011;50187;50.492;12.134;2022-09-09T13:02:54;0.90;;;0.90;;
20159;SDS011;50187;50.492;12.134;2022-09-09T13:05:43;0.80;;;0.80;;
20159;SDS011;50187;50.492;12.134;2022-09-09T13:08:29;0.70;;;0.70;;
20159;SDS011;50187;50.492;12.134;2022-09-09T13:11:15;0.60;;;0.50;;
20159;SDS011;50187;50.492;12.134;2022-09-09T13:14:06;0.97;;;0.87;;
20159;SDS011;50187;50.492;12.134;2022-09-09T13:16:55;1.53;;;0.90;;
20159;SDS011;50187;50.492;12.134;2022-09-09T13:19:43;1.03;;;0.93;;
20159;SDS011;50187;50.492;12.134;2022-09-09T13:22:37;1.53;;;0.80;;
20159;SDS011;50187;50.492;12.134;2022-09-09T13:25:27;0.73;;;0.73;;
20159;SDS011;50187;50.492;12.134;2022-09-09T13:28:20;0.80;;;0.80;;
20159;SDS011;50187;50.492;12.134;2022-09-09T13:31:19;0.73;;;0.73;;
20159;SDS011;50187;50.492;12.134;2022-09-09T13:34:12;1.27;;;0.90;;
20159;SDS011;50187;50.492;12.134;2022-09-09T13:37:00;0.60;;;0.60;;
20159;SDS011;50187;50.492;12.134;2022-09-09T13:39:50;0.87;;;0.87;;
20159;SDS011;50187;50.492;12.134;2022-09-09T13:43:00;4.87;;;0.80;;
20159;SDS011;50187;50.492;12.134;2022-09-09T13:46:02;1.30;;;0.87;;
20159;SDS011;50187;50.492;12.134;2022-09-09T13:49:18;1.07;;;1.07;;
20159;SDS011;50187;50.492;12.134;2022-09-09T13:52:14;1.77;;;1.10;;
20159;SDS011;50187;50.492;12.134;2022-09-09T13:55:08;1.17;;;0.97;;
20159;SDS011;50187;50.492;12.134;2022-09-09T13:57:56;1.00;;;0.90;;
20159;SDS011;50187;50.492;12.134;2022-09-09T14:00:46;2.30;;;1.10;;
20159;SDS011;50187;50.492;12.134;2022-09-09T14:03:32;1.23;;;1.13;;
20159;SDS011;50187;50.492;12.134;2022-09-09T14:06:23;1.20;;;1.10;;
20159;SDS011;50187;50.492;12.134;2022-09-09T14:09:13;1.87;;;1.47;;
20159;SDS011;50187;50.492;12.134;2022-09-09T14:12:03;1.53;;;1.13;;
20159;SDS011;50187;50.492;12.134;2022-09-09T14:14:57;1.67;;;1.23;;
20159;SDS011;50187;50.492;12.134;2022-09-09T14:17:45;2.63;;;1.30;;
20159;SDS011;50187;50.492;12.134;2022-09-09T14:20:31;1.73;;;1.63;;
20159;SDS011;50187;50.492;12.134;2022-09-09T14:23:17;1.07;;;1.00;;
20159;SDS011;50187;50.492;12.134;2022-09-09T14:26:05;3.33;;;1.47;;
20159;SDS011;50187;50.492;12.134;2022-09-09T14:28:51;1.40;;;1.30;;
20159;SDS011;50187;50.492;12.134;2022-09-09T14:31:40;1.13;;;1.10;;
20159;SDS011;50187;50.492;12.134;2022-09-09T14:34:25;2.53;;;1.30;;
20159;SDS011;50187;50.492;12.134;2022-09-09T14:37:11;1.53;;;1.43;;
20159;SDS011;50187;50.492;12.134;2022-09-09T14:39:56;1.50;;;1.40;;
20159;SDS011;50187;50.492;12.134;2022-09-09T14:42:42;1.83;;;1.53;;
20159;SDS011;50187;50.492;12.134;2022-09-09T14:45:27;1.60;;;1.10;;
20159;SDS011;50187;50.492;12.134;2022-09-09T14:48:14;1.50;;;1.40;;
20159;SDS011;50187;50.492;12.134;2022-09-09T14:51:19;1.37;;;1.27;;
20159;SDS011;50187;50.492;12.134;2022-09-09T14:54:07;6.63;;;1.50;;
20159;SDS011;50187;50.492;12.134;2022-09-09T14:56:53;2.77;;;1.37;;
20159;SDS011;50187;50.492;12.134;2022-09-09T14:59:38;2.00;;;1.50;;
20159;SDS011;50187;50.492;12.134;2022-09-09T15:02:23;1.87;;;1.50;;
20159;SDS011;50187;50.492;12.134;2022-09-09T15:05:09;2.00;;;1.27;;
20159;SDS011;50187;50.492;12.134;2022-09-09T15:07:54;1.63;;;0.97;;
20159;SDS011;50187;50.492;12.134;2022-09-09T15:10:39;2.40;;;1.20;;
20159;SDS011;50187;50.492;12.134;2022-09-09T15:13:24;1.53;;;1.10;;
20159;SDS011;50187;50.492;12.134;2022-09-09T15:16:11;1.37;;;0.90;;
20159;SDS011;50187;50.492;12.134;2022-09-09T15:19:02;1.43;;;1.33;;
20159;SDS011;50187;50.492;12.134;2022-09-09T15:21:47;2.47;;;1.00;;
20159;SDS011;50187;50.492;12.134;2022-09-09T15:24:33;2.03;;;1.43;;
20159;SDS011;50187;50.492;12.134;2022-09-09T15:27:18;3.30;;;1.83;;
20159;SDS011;50187;50.492;12.134;2022-09-09T15:30:04;4.90;;;1.50;;
20159;SDS011;50187;50.492;12.134;2022-09-09T15:32:49;2.63;;;1.47;;
20159;SDS011;50187;50.492;12.134;2022-09-09T15:35:34;2.03;;;1.30;;
20159;SDS011;50187;50.492;12.134;2022-09-09T15:38:19;1.63;;;1.40;;
20159;SDS011;50187;50.492;12.134;2022-09-09T15:41:04;2.27;;;1.30;;
20159;SDS011;50187;50.492;12.134;2022-09-09T15:43:50;1.47;;;1.37;;
20159;SDS011;50187;50.492;12.134;2022-09-09T15:49:24;3.53;;;1.40;;
20159;SDS011;50187;50.492;12.134;2022-09-09T15:52:11;2.23;;;1.30;;
20159;SDS011;50187;50.492;12.134;2022-09-09T15:54:56;1.53;;;1.43;;
20159;SDS011;50187;50.492;12.134;2022-09-09T15:57:41;1.97;;;1.37;;
20159;SDS011;50187;50.492;12.134;2022-09-09T16:00:26;2.13;;;1.57;;
20159;SDS011;50187;50.492;12.134;2022-09-09T16:03:13;3.20;;;1.20;;
20159;SDS011;50187;50.492;12.134;2022-09-09T16:05:58;1.90;;;1.30;;
20159;SDS011;50187;50.492;12.134;2022-09-09T16:08:45;1.50;;;1.20;;
20159;SDS011;50187;50.492;12.134;2022-09-09T16:11:32;2.87;;;1.50;;
20159;SDS011;50187;50.492;12.134;2022-09-09T16:14:19;2.50;;;1.33;;
20159;SDS011;50187;50.492;12.134;2022-09-09T16:17:05;1.40;;;1.30;;
20159;SDS011;50187;50.492;12.134;2022-09-09T16:19:51;3.80;;;1.53;;
20159;SDS011;50187;50.492;12.134;2022-09-09T16:22:38;1.67;;;1.20;;
20159;SDS011;50187;50.492;12.134;2022-09-09T16:25:23;2.27;;;1.30;;
20159;SDS011;50187;50.492;12.134;2022-09-09T16:28:08;1.93;;;1.60;;
20159;SDS011;50187;50.492;12.134;2022-09-09T16:30:53;1.57;;;1.40;;
20159;SDS011;50187;50.492;12.134;2022-09-09T16:33:38;1.50;;;1.20;;
20159;SDS011;50187;50.492;12.134;2022-09-09T16:36:24;1.00;;;0.90;;
20159;SDS011;50187;50.492;12.134;2022-09-09T16:39:12;1.20;;;1.10;;
20159;SDS011;50187;50.492;12.134;2022-09-09T16:41:59;2.40;;;1.23;;
20159;SDS011;50187;50.492;12.134;2022-09-09T16:44:44;3.07;;;1.30;;
20159;SDS011;50187;50.492;12.134;2022-09-09T16:47:29;1.37;;;1.20;;
20159;SDS011;50187;50.492;12.134;2022-09-09T16:50:14;1.10;;;1.10;;
20159;SDS011;50187;50.492;12.134;2022-09-09T16:52:59;1.23;;;1.13;;
20159;SDS011;50187;50.492;12.134;2022-09-09T16:55:47;1.00;;;1.00;;
20159;SDS011;50187;50.492;12.134;2022-09-09T16:58:32;1.50;;;0.93;;
20159;SDS011;50187;50.492;12.134;2022-09-09T17:01:18;1.37;;;1.13;;
20159;SDS011;50187;50.492;12.134;2022-09-09T17:04:04;1.00;;;1.00;;
20159;SDS011;50187;50.492;12.134;2022-09-09T17:06:51;1.60;;;1.40;;
20159;SDS011;50187;50.492;12.134;2022-09-09T17:09:38;1.67;;;1.30;;
20159;SDS011;50187;50.492;12.134;2022-09-09T17:12:22;2.43;;;1.20;;
20159;SDS011;50187;50.492;12.134;2022-09-09T17:15:08;1.27;;;1.17;;
20159;SDS011;50187;50.492;12.134;2022-09-09T17:17:53;1.23;;;1.13;;
20159;SDS011;50187;50.492;12.134;2022-09-09T17:20:40;0.93;;;0.80;;
20159;SDS011;50187;50.492;12.134;2022-09-09T17:23:30;1.27;;;1.10;;
20159;SDS011;50187;50.492;12.134;2022-09-09T17:26:17;1.67;;;1.30;;
20159;SDS011;50187;50.492;12.134;2022-09-09T17:29:03;1.23;;;1.20;;
20159;SDS011;50187;50.492;12.134;2022-09-09T17:31:49;0.93;;;0.90;;
20159;SDS011;50187;50.492;12.134;2022-09-09T17:34:34;1.20;;;1.10;;
20159;SDS011;50187;50.492;12.134;2022-09-09T17:37:19;2.60;;;1.20;;
20159;SDS011;50187;50.492;12.134;2022-09-09T17:40:04;3.50;;;1.30;;
20159;SDS011;50187;50.492;12.134;2022-09-09T17:42:50;1.30;;;1.20;;
20159;SDS011;50187;50.492;12.134;2022-09-09T17:45:35;1.10;;;1.10;;
20159;SDS011;50187;50.492;12.134;2022-09-09T17:48:21;0.97;;;0.97;;
20159;SDS011;50187;50.492;12.134;2022-09-09T17:51:06;1.30;;;1.20;;
20159;SDS011;50187;50.492;12.134;2022-09-09T17:53:54;1.07;;;1.03;;
20159;SDS011;50187;50.492;12.134;2022-09-09T17:56:40;3.37;;;1.17;;
20159;SDS011;50187;50.492;12.134;2022-09-09T17:59:26;1.20;;;1.10;;
20159;SDS011;50187;50.492;12.134;2022-09-09T18:02:11;0.90;;;0.90;;
20159;SDS011;50187;50.492;12.134;2022-09-09T18:04:57;1.00;;;1.00;;
20159;SDS011;50187;50.492;12.134;2022-09-09T18:07:42;1.87;;;0.90;;
20159;SDS011;50187;50.492;12.134;2022-09-09T18:10:27;1.50;;;1.30;;
20159;SDS011;50187;50.492;12.134;2022-09-09T18:13:12;1.87;;;1.30;;
20159;SDS011;50187;50.492;12.134;2022-09-09T18:15:57;0.73;;;0.73;;
20159;SDS011;50187;50.492;12.134;2022-09-09T18:18:44;1.60;;;1.10;;
20159;SDS011;50187;50.492;12.134;2022-09-09T18:21:34;0.97;;;0.97;;
20159;SDS011;50187;50.492;12.134;2022-09-09T18:24:19;0.90;;;0.90;;
20159;SDS011;50187;50.492;12.134;2022-09-09T18:27:06;1.10;;;0.97;;
20159;SDS011;50187;50.492;12.134;2022-09-09T18:29:51;1.80;;;1.30;;